Time;durP1;ratioP1;P1;durP2;ratioP2;P2;SDS_P1;SDS_P2;PMS_P1;PMS_P2;Temp;Humidity;BMP_temperature;BMP_pressure;BME280_temperature;BME280_humidity;BME280_pressure;Samples;Min_cycle;Max_cycle;Signal;HPM_P1;HPM_P2
2023/07/05 04:48:42;;;;;;;;;;;17.70;75.40;;;;;;6302493;22;19922;-66
2023/07/05 04:51:08;;;;;;;;;;;17.70;75.30;;;;;;6275007;22;19915;-66
2023/07/05 04:53:36;;;;;;;;;;;17.70;75.50;;;;;;6275665;22;19916;-66
2023/07/05 04:56:03;;;;;;;;;;;17.70;75.80;;;;;;6275285;22;20281;-66
2023/07/05 04:58:30;;;;;;;;;;;17.70;75.80;;;;;;6276001;22;19904;-66
2023/07/05 05:01:02;;;;;;;;;;;17.60;75.80;;;;;;6248814;22;19903;-66
2023/07/05 05:03:29;;;;;;;;;;;17.60;75.90;;;;;;6272623;22;19969;-66
2023/07/05 05:05:56;;;;;;;;;;;17.60;75.90;;;;;;6272868;22;20277;-66
2023/07/05 05:08:23;;;;;;;;;;;17.60;75.80;;;;;;6272538;22;20293;-66
2023/07/05 05:10:55;;;;;;;;;;;17.60;75.70;;;;;;6272423;22;20205;-66
2023/07/05 05:13:22;;;;;;;;;;;17.60;75.20;;;;;;6272290;22;19929;-66
2023/07/05 05:15:49;;;;;;;;;;;17.50;74.90;;;;;;6272007;22;20516;-66
2023/07/05 05:18:16;;;;;;;;;;;17.50;74.90;;;;;;6272674;22;19990;-66
2023/07/05 05:20:42;;;;;;;;;;;17.50;74.80;;;;;;6271478;22;20346;-67
2023/07/05 05:23:09;;;;;;;;;;;17.50;74.60;;;;;;6272533;22;19986;-67
2023/07/05 05:25:36;;;;;;;;;;;17.50;74.60;;;;;;6269508;22;20362;-67
2023/07/05 05:28:03;;;;;;;;;;;17.50;74.60;;;;;;6272101;22;19946;-67
2023/07/05 05:30:31;;;;;;;;;;;17.50;74.50;;;;;;6271661;22;20311;-67
2023/07/05 05:32:58;;;;;;;;;;;17.50;74.50;;;;;;6271821;22;19903;-67
2023/07/05 05:35:24;;;;;;;;;;;17.60;74.30;;;;;;6272152;22;20242;-67
2023/07/05 05:37:51;;;;;;;;;;;17.50;74.30;;;;;;6272513;22;19913;-67
2023/07/05 05:40:18;;;;;;;;;;;17.60;74.20;;;;;;6272317;22;19903;-67
2023/07/05 05:42:45;;;;;;;;;;;17.60;74.10;;;;;;6272729;22;20240;-67
2023/07/05 05:45:11;;;;;;;;;;;17.50;74.00;;;;;;6272418;22;20318;-66
2023/07/05 05:47:38;;;;;;;;;;;17.60;74.00;;;;;;6272510;22;19914;-66
2023/07/05 05:50:05;;;;;;;;;;;17.50;74.00;;;;;;6290028;22;19976;-67
2023/07/05 05:52:32;;;;;;;;;;;17.50;74.00;;;;;;6302763;22;20674;-66
2023/07/05 05:54:59;;;;;;;;;;;17.50;74.10;;;;;;6302713;22;19910;-65
2023/07/05 05:57:25;;;;;;;;;;;17.50;74.20;;;;;;6304407;22;20054;-65
2023/07/05 05:59:52;;;;;;;;;;;17.50;74.30;;;;;;6304623;22;20318;-65
2023/07/05 06:02:19;;;;;;;;;;;17.50;74.30;;;;;;6304319;22;19930;-65
2023/07/05 06:04:46;;;;;;;;;;;17.50;74.30;;;;;;6275957;22;20234;-65
2023/07/05 06:07:12;;;;;;;;;;;17.50;74.10;;;;;;6304313;22;19907;-65
2023/07/05 06:09:43;;;;;;;;;;;17.50;73.80;;;;;;6304195;22;19907;-64
2023/07/05 06:12:10;;;;;;;;;;;17.50;73.80;;;;;;6303994;22;19981;-65
2023/07/05 06:14:36;;;;;;;;;;;17.50;73.80;;;;;;6304278;22;20057;-64
2023/07/05 06:17:03;;;;;;;;;;;17.50;73.60;;;;;;6304782;22;19993;-65
2023/07/05 06:19:30;;;;;;;;;;;17.50;73.70;;;;;;6304328;22;19992;-65
2023/07/05 06:21:57;;;;;;;;;;;17.50;73.60;;;;;;6304707;22;20228;-65
2023/07/05 06:24:23;;;;;;;;;;;17.40;73.70;;;;;;6302009;22;19914;-65
2023/07/05 06:26:50;;;;;;;;;;;17.40;73.70;;;;;;6304040;22;19903;-65
2023/07/05 06:29:17;;;;;;;;;;;17.40;73.90;;;;;;6304818;22;19985;-66
2023/07/05 06:31:44;;;;;;;;;;;17.30;74.00;;;;;;6304214;22;20348;-66
2023/07/05 06:34:10;;;;;;;;;;;17.30;74.30;;;;;;6304497;22;19953;-66
2023/07/05 06:36:37;;;;;;;;;;;17.30;74.40;;;;;;6305038;22;20379;-66
2023/07/05 06:39:04;;;;;;;;;;;17.30;74.60;;;;;;6304817;22;19988;-66
2023/07/05 06:41:31;;;;;;;;;;;17.30;74.70;;;;;;6304324;22;19911;-66
2023/07/05 06:43:57;;;;;;;;;;;17.30;74.80;;;;;;6304268;22;19946;-66
2023/07/05 06:46:24;;;;;;;;;;;17.30;74.90;;;;;;6304051;22;19914;-64
2023/07/05 06:48:51;;;;;;;;;;;17.30;75.00;;;;;;6304340;22;20257;-64
2023/07/05 06:51:17;;;;;;;;;;;17.30;75.20;;;;;;6303964;22;19997;-65
2023/07/05 06:53:44;;;;;;;;;;;17.20;75.30;;;;;;6304341;22;19911;-64
2023/07/05 06:56:11;;;;;;;;;;;17.30;75.20;;;;;;6304334;22;19907;-65
2023/07/05 06:58:38;;;;;;;;;;;17.20;75.00;;;;;;6304417;22;19907;-64
2023/07/05 07:01:04;;;;;;;;;;;17.30;74.90;;;;;;6304544;22;19984;-64
2023/07/05 07:03:31;;;;;;;;;;;17.20;74.80;;;;;;6304547;22;19915;-65
2023/07/05 07:05:58;;;;;;;;;;;17.20;74.70;;;;;;6304622;22;20306;-65
2023/07/05 07:08:28;;;;;;;;;;;17.20;74.60;;;;;;6304291;22;19925;-65
2023/07/05 07:10:55;;;;;;;;;;;17.20;74.50;;;;;;6304508;22;20214;-64
2023/07/05 07:13:22;;;;;;;;;;;17.20;74.50;;;;;;6304154;22;19915;-65
2023/07/05 07:15:50;;;;;;;;;;;17.20;74.30;;;;;;6303886;22;19914;-64
2023/07/05 07:18:18;;;;;;;;;;;17.20;73.90;;;;;;6276841;22;19942;-64
2023/07/05 07:20:51;;;;;;;;;;;17.20;73.80;;;;;;6304060;22;19906;-65
2023/07/05 07:23:18;;;;;;;;;;;17.20;73.50;;;;;;6304747;22;19903;-65
2023/07/05 07:25:44;;;;;;;;;;;17.10;73.20;;;;;;6301605;22;19907;-65
2023/07/05 07:28:11;;;;;;;;;;;17.20;72.90;;;;;;6303269;22;19911;-65
2023/07/05 07:30:38;;;;;;;;;;;17.20;72.80;;;;;;6304260;22;20160;-64
2023/07/05 07:33:05;;;;;;;;;;;17.10;72.70;;;;;;6304598;22;19964;-64
2023/07/05 07:35:31;;;;;;;;;;;17.10;72.70;;;;;;6304700;22;20245;-65
2023/07/05 07:37:58;;;;;;;;;;;17.20;72.50;;;;;;6304036;22;19918;-65
2023/07/05 07:40:25;;;;;;;;;;;17.10;72.40;;;;;;6304027;22;20309;-64
2023/07/05 07:42:51;;;;;;;;;;;17.10;72.40;;;;;;6303791;22;19910;-64
2023/07/05 07:45:18;;;;;;;;;;;17.10;72.40;;;;;;6302008;22;19907;-64
2023/07/05 07:47:45;;;;;;;;;;;17.20;72.40;;;;;;6304462;22;19910;-65
2023/07/05 07:50:13;;;;;;;;;;;17.10;72.30;;;;;;6303693;22;19919;-64
2023/07/05 07:52:40;;;;;;;;;;;17.10;72.30;;;;;;6303094;22;19942;-64
2023/07/05 07:55:07;;;;;;;;;;;17.10;72.30;;;;;;6302307;22;19919;-65
2023/07/05 07:57:33;;;;;;;;;;;17.10;72.40;;;;;;6304113;22;19910;-64
2023/07/05 08:00:00;;;;;;;;;;;17.00;72.40;;;;;;6303810;22;19906;-64
2023/07/05 08:02:27;;;;;;;;;;;17.00;72.50;;;;;;6303335;22;20296;-65
2023/07/05 08:04:53;;;;;;;;;;;16.90;72.60;;;;;;6304085;22;19914;-64
2023/07/05 08:07:20;;;;;;;;;;;16.90;72.70;;;;;;6303029;22;20399;-65
2023/07/05 08:09:50;;;;;;;;;;;16.90;72.80;;;;;;6302955;22;19986;-65
2023/07/05 08:12:16;;;;;;;;;;;16.90;72.80;;;;;;6302987;22;20273;-66
2023/07/05 08:14:43;;;;;;;;;;;16.80;72.80;;;;;;6303003;22;19964;-66
2023/07/05 08:17:10;;;;;;;;;;;16.90;72.70;;;;;;6303436;22;19972;-66
2023/07/05 08:19:37;;;;;;;;;;;16.80;72.60;;;;;;6275606;22;19910;-66
2023/07/05 08:22:06;;;;;;;;;;;16.80;72.70;;;;;;6302770;22;19985;-66
2023/07/05 08:24:32;;;;;;;;;;;16.80;72.70;;;;;;6300888;22;19918;-66
2023/07/05 08:26:59;;;;;;;;;;;16.90;72.70;;;;;;6302786;22;19949;-66
2023/07/05 08:29:26;;;;;;;;;;;16.90;72.80;;;;;;6303956;22;19907;-65
2023/07/05 08:31:53;;;;;;;;;;;16.90;73.00;;;;;;6302810;22;19989;-65
2023/07/05 08:34:20;;;;;;;;;;;16.80;73.20;;;;;;6300271;22;20652;-66
2023/07/05 08:36:46;;;;;;;;;;;16.80;73.30;;;;;;6303151;22;19990;-65
2023/07/05 08:39:13;;;;;;;;;;;16.80;73.20;;;;;;6303145;22;19907;-66
2023/07/05 08:41:46;;;;;;;;;;;16.80;73.20;;;;;;6302471;22;20268;-66
2023/07/05 08:44:15;;;;;;;;;;;16.80;73.30;;;;;;6302989;22;19969;-66
2023/07/05 08:46:42;;;;;;;;;;;16.80;73.30;;;;;;6303369;22;20169;-65
2023/07/05 08:49:13;;;;;;;;;;;16.80;73.30;;;;;;6302630;22;19914;-65
2023/07/05 08:51:41;;;;;;;;;;;16.80;73.30;;;;;;6303056;22;19910;-65
2023/07/05 08:54:10;;;;;;;;;;;16.80;73.20;;;;;;6303550;22;19961;-65
2023/07/05 08:56:38;;;;;;;;;;;16.80;73.10;;;;;;6275523;22;20032;-65
2023/07/05 08:59:11;;;;;;;;;;;16.80;73.00;;;;;;6276713;22;19907;-66
2023/07/05 09:01:39;;;;;;;;;;;16.80;72.90;;;;;;6303149;22;19961;-66
2023/07/05 09:04:26;;;;;;;;;;;16.80;72.90;;;;;;6302951;22;19907;-65
2023/07/05 09:07:04;;;;;;;;;;;16.80;72.80;;;;;;6302139;22;19910;-65
2023/07/05 09:09:49;;;;;;;;;;;16.90;72.70;;;;;;6276148;22;19903;-65
2023/07/05 09:12:25;;;;;;;;;;;16.80;72.60;;;;;;6276025;22;20592;-66
2023/07/05 09:15:01;;;;;;;;;;;16.80;72.60;;;;;;6302798;22;19915;-65
2023/07/05 09:17:56;;;;;;;;;;;16.80;72.80;;;;;;6303096;22;19957;-66
2023/07/05 09:20:23;;;;;;;;;;;16.80;72.80;;;;;;6270973;22;19960;-66
2023/07/05 09:22:50;;;;;;;;;;;16.80;72.80;;;;;;6303052;22;19965;-65
2023/07/05 09:25:17;;;;;;;;;;;16.80;73.00;;;;;;6273994;22;19919;-65
2023/07/05 09:27:46;;;;;;;;;;;16.80;73.10;;;;;;6276207;22;19972;-66
2023/07/05 09:30:13;;;;;;;;;;;16.80;73.10;;;;;;6276629;22;19994;-66
2023/07/05 09:32:41;;;;;;;;;;;16.70;73.20;;;;;;6305116;22;19903;-66
2023/07/05 09:35:16;;;;;;;;;;;16.70;73.20;;;;;;6277320;22;20329;-65
2023/07/05 09:38:03;;;;;;;;;;;16.70;73.30;;;;;;6305538;22;19903;-66
2023/07/05 09:40:31;;;;;;;;;;;16.70;73.20;;;;;;6305015;22;20048;-64
2023/07/05 09:43:27;;;;;;;;;;;16.70;73.40;;;;;;6278173;22;20334;-66
2023/07/05 09:45:54;;;;;;;;;;;16.70;73.30;;;;;;6271595;22;20003;-66
2023/07/05 09:48:21;;;;;;;;;;;16.70;73.30;;;;;;6304144;22;19980;-66
2023/07/05 09:50:49;;;;;;;;;;;16.70;73.30;;;;;;6277825;22;19999;-67
2023/07/05 09:53:35;;;;;;;;;;;16.70;73.20;;;;;;6305229;22;19993;-67
2023/07/05 09:56:04;;;;;;;;;;;16.70;73.20;;;;;;6278640;22;19910;-67
2023/07/05 09:58:31;;;;;;;;;;;16.70;72.90;;;;;;6304330;22;19907;-66
2023/07/05 10:01:02;;;;;;;;;;;16.70;72.80;;;;;;6305166;22;20322;-67
2023/07/05 10:03:34;;;;;;;;;;;16.70;72.70;;;;;;6278490;22;19968;-66
2023/07/05 10:06:07;;;;;;;;;;;16.70;72.60;;;;;;6277694;22;20289;-67
2023/07/05 10:08:44;;;;;;;;;;;16.70;72.40;;;;;;6305243;22;20289;-68
2023/07/05 10:11:24;;;;;;;;;;;16.70;72.30;;;;;;6304798;22;19903;-67
2023/07/05 10:14:20;;;;;;;;;;;16.60;72.20;;;;;;6304248;22;19956;-67
2023/07/05 10:16:51;;;;;;;;;;;16.60;72.20;;;;;;6272685;22;19907;-67
2023/07/05 10:19:21;;;;;;;;;;;16.60;72.30;;;;;;6305032;22;19907;-66
2023/07/05 10:21:48;;;;;;;;;;;16.60;72.40;;;;;;6303909;22;19915;-66
2023/07/05 10:24:16;;;;;;;;;;;16.60;72.40;;;;;;6275177;22;19910;-66
2023/07/05 10:26:43;;;;;;;;;;;16.60;72.50;;;;;;6278116;22;19986;-67
2023/07/05 10:29:10;;;;;;;;;;;16.60;72.60;;;;;;6305051;22;19903;-66
2023/07/05 10:31:37;;;;;;;;;;;16.60;72.70;;;;;;6276977;22;19914;-66
2023/07/05 10:34:04;;;;;;;;;;;16.50;72.70;;;;;;6304081;22;20284;-66
2023/07/05 10:36:31;;;;;;;;;;;16.50;72.70;;;;;;6300681;22;19913;-65
2023/07/05 10:38:58;;;;;;;;;;;16.50;72.70;;;;;;6299260;22;19937;-68
2023/07/05 10:41:27;;;;;;;;;;;16.40;72.60;;;;;;6297286;22;19907;-67
2023/07/05 10:43:56;;;;;;;;;;;16.40;72.60;;;;;;6297814;22;19907;-66
2023/07/05 10:46:23;;;;;;;;;;;16.40;72.80;;;;;;6272357;22;19907;-65
2023/07/05 10:48:50;;;;;;;;;;;16.40;73.00;;;;;;6298230;22;19942;-67
2023/07/05 10:51:18;;;;;;;;;;;16.30;73.20;;;;;;6270568;22;20380;-66
2023/07/05 10:54:05;;;;;;;;;;;16.30;73.20;;;;;;6297937;22;20277;-67
2023/07/05 10:56:32;;;;;;;;;;;16.30;73.50;;;;;;6302706;22;19951;-66
2023/07/05 10:59:17;;;;;;;;;;;16.20;73.80;;;;;;6303899;22;19907;-65
2023/07/05 11:01:59;;;;;;;;;;;16.20;73.90;;;;;;6304484;22;20236;-66
2023/07/05 11:04:28;;;;;;;;;;;16.20;73.90;;;;;;6277312;22;19907;-65
2023/07/05 11:06:54;;;;;;;;;;;16.20;73.90;;;;;;6303743;22;19907;-65
2023/07/05 11:09:21;;;;;;;;;;;16.10;74.00;;;;;;6276484;22;19913;-65
2023/07/05 11:11:49;;;;;;;;;;;16.20;74.00;;;;;;6304486;22;19907;-65
2023/07/05 11:14:16;;;;;;;;;;;16.10;74.00;;;;;;6276758;22;19938;-65
2023/07/05 11:16:43;;;;;;;;;;;16.10;73.90;;;;;;6276335;22;19903;-65
2023/07/05 11:19:13;;;;;;;;;;;16.00;73.90;;;;;;6303535;22;19910;-66
2023/07/05 11:21:44;;;;;;;;;;;16.00;73.90;;;;;;6276616;22;20211;-64
2023/07/05 11:24:11;;;;;;;;;;;16.00;73.90;;;;;;6301924;22;20318;-65
2023/07/05 11:26:42;;;;;;;;;;;16.00;74.10;;;;;;6303751;22;19930;-65
2023/07/05 11:29:26;;;;;;;;;;;16.00;74.20;;;;;;6304008;22;19907;-66
2023/07/05 11:31:53;;;;;;;;;;;16.00;74.30;;;;;;6304192;22;19930;-66
2023/07/05 11:34:25;;;;;;;;;;;15.90;74.30;;;;;;6303858;22;19915;-66
2023/07/05 11:36:53;;;;;;;;;;;15.90;74.30;;;;;;6303481;22;20246;-66
2023/07/05 11:39:35;;;;;;;;;;;15.90;74.30;;;;;;6276411;22;19934;-65
2023/07/05 11:42:17;;;;;;;;;;;15.80;74.20;;;;;;6304270;22;20228;-68
2023/07/05 11:44:46;;;;;;;;;;;15.80;74.50;;;;;;6304165;22;19903;-66
2023/07/05 11:47:22;;;;;;;;;;;15.80;74.50;;;;;;6303701;22;19914;-66
2023/07/05 11:49:58;;;;;;;;;;;15.80;74.50;;;;;;6303576;22;19925;-66
2023/07/05 11:52:32;;;;;;;;;;;15.70;74.70;;;;;;6276796;22;19911;-66
2023/07/05 11:55:14;;;;;;;;;;;15.70;74.80;;;;;;6303610;22;19910;-66
2023/07/05 11:57:43;;;;;;;;;;;15.70;74.90;;;;;;6304183;22;19903;-68
2023/07/05 12:00:19;;;;;;;;;;;15.70;75.00;;;;;;6275253;22;19914;-66
2023/07/05 12:02:46;;;;;;;;;;;15.70;75.20;;;;;;6276041;22;19985;-66
2023/07/05 12:05:14;;;;;;;;;;;15.70;75.20;;;;;;6303546;22;19974;-69
2023/07/05 12:07:42;;;;;;;;;;;15.70;75.20;;;;;;6276395;22;19910;-67
2023/07/05 12:10:09;;;;;;;;;;;15.60;75.30;;;;;;6277144;22;19946;-67
2023/07/05 12:12:39;;;;;;;;;;;15.60;75.30;;;;;;6304108;22;20245;-67
2023/07/05 12:15:06;;;;;;;;;;;15.60;75.60;;;;;;6303779;22;19915;-67
2023/07/05 12:17:34;;;;;;;;;;;15.60;75.60;;;;;;6277190;22;19964;-67
2023/07/05 12:20:04;;;;;;;;;;;15.50;75.70;;;;;;6276522;22;19911;-66
2023/07/05 12:22:31;;;;;;;;;;;15.50;76.00;;;;;;6303125;22;19930;-66
2023/07/05 12:24:58;;;;;;;;;;;15.50;76.10;;;;;;6273880;22;19930;-66
2023/07/05 12:27:28;;;;;;;;;;;15.50;76.10;;;;;;6303245;22;19978;-65
2023/07/05 12:29:56;;;;;;;;;;;15.40;76.20;;;;;;6303613;22;19907;-66
2023/07/05 12:32:24;;;;;;;;;;;15.40;76.10;;;;;;6305093;22;19902;-68
2023/07/05 12:35:09;;;;;;;;;;;15.40;75.90;;;;;;6305778;22;19911;-66
2023/07/05 12:37:36;;;;;;;;;;;15.30;76.00;;;;;;6306938;22;19903;-66
2023/07/05 12:40:21;;;;;;;;;;;15.30;75.90;;;;;;6306881;22;19903;-65
2023/07/05 12:42:52;;;;;;;;;;;15.30;75.90;;;;;;6307101;22;19910;-65
2023/07/05 12:45:29;;;;;;;;;;;15.30;75.80;;;;;;6279740;22;19960;-65
2023/07/05 12:47:56;;;;;;;;;;;15.30;75.90;;;;;;6306398;22;20678;-65
2023/07/05 12:50:23;;;;;;;;;;;15.30;75.60;;;;;;6305622;22;19924;-66
2023/07/05 12:53:06;;;;;;;;;;;15.30;75.80;;;;;;6306791;22;19903;-66
2023/07/05 12:55:33;;;;;;;;;;;15.30;75.90;;;;;;6306419;22;19911;-66
2023/07/05 12:58:00;;;;;;;;;;;15.30;76.00;;;;;;6278974;22;19903;-66
2023/07/05 13:00:28;;;;;;;;;;;15.20;76.10;;;;;;6279627;22;19907;-65
2023/07/05 13:02:59;;;;;;;;;;;15.20;76.20;;;;;;6306688;22;19903;-65
2023/07/05 13:05:25;;;;;;;;;;;15.10;76.10;;;;;;6306693;22;20337;-65
2023/07/05 13:07:52;;;;;;;;;;;15.10;76.30;;;;;;6307792;22;20268;-65
2023/07/05 13:10:19;;;;;;;;;;;15.00;76.50;;;;;;6281555;22;19956;-65
2023/07/05 13:12:50;;;;;;;;;;;15.00;76.50;;;;;;6309123;22;19910;-65
2023/07/05 13:15:17;;;;;;;;;;;15.00;76.60;;;;;;6308453;22;19918;-66
2023/07/05 13:17:43;;;;;;;;;;;15.00;76.80;;;;;;6308697;22;19903;-65
2023/07/05 13:20:16;;;;;;;;;;;14.90;76.80;;;;;;6281465;22;19903;-65
2023/07/05 13:22:46;;;;;;;;;;;14.90;76.90;;;;;;6308315;22;19903;-65
2023/07/05 13:25:28;;;;;;;;;;;14.90;76.80;;;;;;6308027;22;19903;-66
2023/07/05 13:27:55;;;;;;;;;;;14.80;77.20;;;;;;6308962;22;19974;-65
2023/07/05 13:30:22;;;;;;;;;;;14.80;77.20;;;;;;6308539;22;19903;-66
2023/07/05 13:32:53;;;;;;;;;;;14.80;77.20;;;;;;6307923;22;19910;-66
2023/07/05 13:35:20;;;;;;;;;;;14.70;77.20;;;;;;6308604;22;19946;-66
2023/07/05 13:37:46;;;;;;;;;;;14.70;77.00;;;;;;6308701;22;20354;-66
2023/07/05 13:40:18;;;;;;;;;;;14.70;77.00;;;;;;6308583;22;19938;-66
2023/07/05 13:42:47;;;;;;;;;;;14.70;76.80;;;;;;6308605;22;19903;-66
2023/07/05 13:45:15;;;;;;;;;;;14.70;76.80;;;;;;6281749;22;20248;-66
2023/07/05 13:47:42;;;;;;;;;;;14.60;76.60;;;;;;6308532;22;19903;-66
2023/07/05 13:50:09;;;;;;;;;;;14.70;76.90;;;;;;6308438;22;20330;-66
2023/07/05 13:52:36;;;;;;;;;;;14.60;77.00;;;;;;6308682;22;19915;-66
2023/07/05 13:55:03;;;;;;;;;;;14.60;77.00;;;;;;6308287;22;20301;-66
2023/07/05 13:57:30;;;;;;;;;;;14.60;77.10;;;;;;6308887;22;20321;-68
2023/07/05 13:59:56;;;;;;;;;;;14.50;77.20;;;;;;6309018;22;20302;-67
2023/07/05 14:02:39;;;;;;;;;;;14.50;77.00;;;;;;6308657;22;19914;-66
2023/07/05 14:05:09;;;;;;;;;;;14.50;76.70;;;;;;6307770;22;19930;-65
2023/07/05 14:07:35;;;;;;;;;;;14.50;76.70;;;;;;6281254;22;20400;-65
2023/07/05 14:10:02;;;;;;;;;;;14.50;76.60;;;;;;6308563;22;20274;-66
2023/07/05 14:40:08;;;;;;;;;;;14.20;77.40;;;;;;6277173;22;19942;-66
2023/07/05 14:42:35;;;;;;;;;;;14.20;77.70;;;;;;6277393;22;19911;-66
2023/07/05 14:45:02;;;;;;;;;;;14.20;77.80;;;;;;6276763;22;19910;-66
2023/07/05 14:47:29;;;;;;;;;;;14.20;78.10;;;;;;6277350;22;19903;-66
2023/07/05 14:49:55;;;;;;;;;;;14.20;78.30;;;;;;6277286;22;19910;-66
2023/07/05 14:52:22;;;;;;;;;;;14.20;78.50;;;;;;6276507;22;20235;-66
2023/07/05 14:54:49;;;;;;;;;;;14.20;78.50;;;;;;6276921;22;19911;-66
2023/07/05 14:57:15;;;;;;;;;;;14.20;78.90;;;;;;6276948;22;20297;-66
2023/07/05 14:59:42;;;;;;;;;;;14.20;78.80;;;;;;6276785;22;19914;-66
2023/07/05 15:02:14;;;;;;;;;;;14.10;78.90;;;;;;6277000;22;20298;-66
2023/07/05 15:04:40;;;;;;;;;;;14.10;79.10;;;;;;6249396;22;19903;-65
2023/07/05 15:07:10;;;;;;;;;;;14.00;78.90;;;;;;6276088;22;20301;-66
2023/07/05 15:09:37;;;;;;;;;;;14.00;79.10;;;;;;6250055;22;19911;-66
2023/07/05 15:12:03;;;;;;;;;;;14.00;79.30;;;;;;6276291;22;19915;-66
2023/07/05 15:14:30;;;;;;;;;;;13.90;79.70;;;;;;6276072;22;19911;-66
2023/07/05 15:16:57;;;;;;;;;;;13.90;79.70;;;;;;6276312;22;19903;-66
2023/07/05 15:19:24;;;;;;;;;;;13.90;79.90;;;;;;6276851;22;20230;-66
2023/07/05 15:21:50;;;;;;;;;;;13.90;79.90;;;;;;6276807;22;19907;-66
2023/07/05 15:24:17;;;;;;;;;;;13.80;79.60;;;;;;6276522;22;19907;-66
2023/07/05 15:26:44;;;;;;;;;;;13.80;79.60;;;;;;6276703;22;19930;-66
2023/07/05 15:29:10;;;;;;;;;;;13.80;79.90;;;;;;6275646;22;20290;-66
2023/07/05 15:31:37;;;;;;;;;;;13.80;80.00;;;;;;6276698;22;19942;-66
2023/07/05 15:34:04;;;;;;;;;;;13.70;80.10;;;;;;6276882;22;19914;-66
2023/07/05 15:36:31;;;;;;;;;;;13.70;80.10;;;;;;6276897;22;19969;-66
2023/07/05 15:38:57;;;;;;;;;;;13.70;80.40;;;;;;6261493;22;19982;-66
2023/07/05 15:41:24;;;;;;;;;;;13.70;80.50;;;;;;6276749;22;19954;-66
2023/07/05 15:43:51;;;;;;;;;;;13.70;80.70;;;;;;6276210;22;19980;-66
2023/07/05 15:46:17;;;;;;;;;;;13.70;80.90;;;;;;6277211;22;19969;-66
2023/07/05 15:48:44;;;;;;;;;;;13.70;80.90;;;;;;6277080;22;19978;-67
2023/07/05 15:51:11;;;;;;;;;;;13.70;80.60;;;;;;6275732;22;19912;-66
2023/07/05 15:53:38;;;;;;;;;;;13.60;80.80;;;;;;6275796;22;19907;-66
2023/07/05 15:56:05;;;;;;;;;;;13.60;81.10;;;;;;6277046;22;19935;-66
2023/07/05 15:58:32;;;;;;;;;;;13.60;81.10;;;;;;6276783;22;20230;-66
2023/07/05 16:01:10;;;;;;;;;;;13.50;81.20;;;;;;6276608;22;19903;-66
2023/07/05 16:03:38;;;;;;;;;;;13.50;81.40;;;;;;6276161;22;19933;-67
2023/07/05 16:06:05;;;;;;;;;;;13.50;81.40;;;;;;6276369;22;19914;-66
2023/07/05 17:12:11;;;;;;;;;;;13.10;81.10;;;;;;6304928;22;19921;-66
2023/07/05 17:14:38;;;;;;;;;;;13.10;80.60;;;;;;6306519;22;19972;-67
2023/07/05 17:17:05;;;;;;;;;;;13.00;80.50;;;;;;6279107;22;19903;-66
2023/07/05 17:19:32;;;;;;;;;;;13.10;80.50;;;;;;6306278;22;19909;-66
2023/07/05 17:22:00;;;;;;;;;;;13.00;80.40;;;;;;6306111;22;19903;-66
2023/07/05 17:24:26;;;;;;;;;;;13.00;80.30;;;;;;6306458;22;19937;-67
2023/07/05 17:26:53;;;;;;;;;;;13.00;80.10;;;;;;6307078;22;19907;-66
2023/07/05 17:29:20;;;;;;;;;;;13.00;80.00;;;;;;6306716;22;19949;-67
2023/07/05 17:31:46;;;;;;;;;;;13.00;79.80;;;;;;6306727;22;19914;-66
2023/07/05 17:34:16;;;;;;;;;;;12.90;79.60;;;;;;6306080;22;20327;-67
2023/07/05 17:36:42;;;;;;;;;;;12.90;79.30;;;;;;6306488;22;19903;-66
2023/07/05 17:39:09;;;;;;;;;;;12.90;79.40;;;;;;6306370;22;19910;-66
2023/07/05 17:41:36;;;;;;;;;;;12.90;79.10;;;;;;6306434;22;19956;-67
2023/07/05 17:44:03;;;;;;;;;;;12.90;79.20;;;;;;6306458;22;19914;-66
2023/07/05 17:46:30;;;;;;;;;;;12.90;79.00;;;;;;6305899;22;19903;-67
2023/07/05 17:48:58;;;;;;;;;;;12.80;78.80;;;;;;6279487;22;19907;-67
2023/07/05 17:51:25;;;;;;;;;;;12.80;79.10;;;;;;6280411;22;19903;-66
2023/07/05 17:53:51;;;;;;;;;;;12.80;79.10;;;;;;6308787;22;19915;-66
2023/07/05 17:56:19;;;;;;;;;;;12.70;79.50;;;;;;6308610;22;19910;-66
2023/07/05 17:58:46;;;;;;;;;;;12.70;79.70;;;;;;6308721;22;19903;-67
2023/07/05 18:01:13;;;;;;;;;;;12.70;79.50;;;;;;6308555;22;20241;-66
2023/07/05 18:03:41;;;;;;;;;;;12.70;79.90;;;;;;6308146;22;19910;-66
2023/07/05 18:06:08;;;;;;;;;;;12.70;80.10;;;;;;6308506;22;19918;-67
2023/07/05 18:08:34;;;;;;;;;;;12.60;80.00;;;;;;6308685;22;19985;-66
2023/07/05 18:11:01;;;;;;;;;;;12.60;80.20;;;;;;6307764;22;19917;-66
2023/07/05 18:13:29;;;;;;;;;;;12.50;80.60;;;;;;6307458;22;20290;-67
2023/07/05 18:15:59;;;;;;;;;;;12.40;80.40;;;;;;6308418;22;19903;-66
2023/07/05 18:18:31;;;;;;;;;;;12.40;80.80;;;;;;6308618;22;19930;-66
2023/07/05 18:20:58;;;;;;;;;;;12.40;80.60;;;;;;6307959;22;19928;-66
2023/07/05 18:23:25;;;;;;;;;;;12.30;80.90;;;;;;6308495;22;20337;-66
2023/07/05 18:25:53;;;;;;;;;;;12.30;81.00;;;;;;6280216;22;19910;-65
2023/07/05 18:28:20;;;;;;;;;;;12.30;81.30;;;;;;6307942;22;19941;-66
2023/07/05 18:30:50;;;;;;;;;;;12.30;81.20;;;;;;6307736;22;19982;-66
2023/07/05 18:33:17;;;;;;;;;;;12.20;81.20;;;;;;6307933;22;19933;-66
2023/07/05 18:35:45;;;;;;;;;;;12.20;81.40;;;;;;6308273;22;20275;-66
2023/07/05 18:38:12;;;;;;;;;;;12.20;81.50;;;;;;6280839;22;20314;-66
2023/07/05 18:40:38;;;;;;;;;;;12.20;81.70;;;;;;6308284;22;19914;-66
2023/07/05 18:43:05;;;;;;;;;;;12.20;81.80;;;;;;6308291;22;20317;-67
2023/07/05 18:45:32;;;;;;;;;;;12.20;81.90;;;;;;6308377;22;19903;-67
2023/07/05 18:48:00;;;;;;;;;;;12.20;81.90;;;;;;6308549;22;20006;-67
2023/07/05 18:50:30;;;;;;;;;;;12.10;82.50;;;;;;6308171;22;20314;-67
2023/07/05 22:59:46;;;;;;;;;;;12.10;79.20;;;;;;6299986;22;19982;-67
2023/07/05 23:02:14;;;;;;;;;;;12.10;79.10;;;;;;6280334;22;19922;-67
2023/07/05 23:04:44;;;;;;;;;;;12.10;79.00;;;;;;6307452;22;20310;-67
2023/07/05 23:07:13;;;;;;;;;;;12.20;79.10;;;;;;6306376;22;19930;-66
2023/07/05 23:09:41;;;;;;;;;;;12.20;79.00;;;;;;6305840;22;19903;-67
2023/07/05 23:12:11;;;;;;;;;;;12.30;78.90;;;;;;6305667;22;19925;-66
2023/07/05 23:14:38;;;;;;;;;;;12.30;78.80;;;;;;6306647;22;19947;-67
2023/07/05 23:17:06;;;;;;;;;;;12.30;79.00;;;;;;6307400;22;19945;-65
2023/07/05 23:19:33;;;;;;;;;;;12.30;78.20;;;;;;6307491;22;19929;-64
2023/07/05 23:22:00;;;;;;;;;;;12.40;77.80;;;;;;6307672;22;19906;-66
2023/07/05 23:24:26;;;;;;;;;;;12.40;76.50;;;;;;6307182;22;19903;-66
2023/07/05 23:26:53;;;;;;;;;;;12.40;76.00;;;;;;6307555;22;19910;-66
2023/07/05 23:29:20;;;;;;;;;;;12.50;76.00;;;;;;6307112;22;19911;-67
2023/07/05 23:31:47;;;;;;;;;;;12.50;75.80;;;;;;6307114;22;20221;-68
2023/07/05 23:34:14;;;;;;;;;;;12.60;74.60;;;;;;6306909;22;19953;-67
2023/07/05 23:36:41;;;;;;;;;;;12.60;75.30;;;;;;6305503;22;20210;-67
2023/07/05 23:39:09;;;;;;;;;;;12.60;74.90;;;;;;6307521;22;19910;-67
2023/07/05 23:41:37;;;;;;;;;;;12.70;74.80;;;;;;6306369;22;19967;-67
2023/07/05 23:44:05;;;;;;;;;;;12.70;74.40;;;;;;6305660;22;20029;-68
2023/07/05 23:46:32;;;;;;;;;;;12.70;74.40;;;;;;6306018;22;20310;-66
2023/07/05 23:48:59;;;;;;;;;;;12.70;74.40;;;;;;6305322;22;19981;-68
2023/07/05 23:51:27;;;;;;;;;;;12.70;74.20;;;;;;6306108;22;19911;-67
2023/07/05 23:53:55;;;;;;;;;;;12.80;74.00;;;;;;6307012;22;19915;-67
2023/07/05 23:56:23;;;;;;;;;;;12.80;73.40;;;;;;6306634;22;19938;-67
2023/07/05 23:58:55;;;;;;;;;;;12.90;73.20;;;;;;6306474;22;20796;-67
